createdAt,value
2022-12-14T00:01:54.562Z,25.98
2022-12-14T00:04:22.315Z,23.23
2022-12-14T00:06:51.670Z,25.42
2022-12-14T00:09:19.649Z,26.75
2022-12-14T00:11:47.404Z,29.75
2022-12-14T00:14:15.601Z,26.38
2022-12-14T00:16:43.454Z,29.35
2022-12-14T00:19:12.433Z,29.58
2022-12-14T00:21:40.384Z,30.95
2022-12-14T00:24:10.346Z,23.73
2022-12-14T00:26:38.294Z,28.73
2022-12-14T00:29:06.311Z,31.10
2022-12-14T00:31:34.350Z,27.73
2022-12-14T00:34:02.357Z,26.08
2022-12-14T00:36:31.750Z,25.75
2022-12-14T00:39:00.204Z,24.10
2022-12-14T00:41:29.442Z,27.45
2022-12-14T00:43:57.632Z,25.08
2022-12-14T00:46:25.654Z,26.38
2022-12-14T00:48:54.540Z,28.13
2022-12-14T00:51:22.452Z,25.90
2022-12-14T00:53:50.445Z,27.30
2022-12-14T00:56:18.241Z,23.95
2022-12-14T00:58:51.561Z,21.23
2022-12-14T01:01:19.964Z,24.42
2022-12-14T01:03:48.301Z,25.27
2022-12-14T01:06:18.327Z,28.00
2022-12-14T01:08:46.352Z,27.52
2022-12-14T01:11:15.438Z,24.38
2022-12-14T01:13:43.750Z,26.02
2022-12-14T01:16:15.549Z,27.50
2022-12-14T01:18:44.756Z,27.15
2022-12-14T01:21:15.165Z,22.40
2022-12-14T01:23:44.084Z,27.60
2022-12-14T01:26:12.707Z,28.08
2022-12-14T01:28:41.037Z,25.48
2022-12-14T01:31:10.796Z,23.70
2022-12-14T01:33:40.575Z,23.23
2022-12-14T01:36:09.003Z,23.67
2022-12-14T01:38:37.235Z,28.42
2022-12-14T01:41:06.125Z,28.52
2022-12-14T01:43:48.775Z,24.45
2022-12-14T01:46:22.447Z,25.80
2022-12-14T01:48:55.972Z,28.70
2022-12-14T01:51:26.237Z,28.70
2022-12-14T01:53:55.497Z,21.38
2022-12-14T01:56:23.580Z,24.33
2022-12-14T01:58:51.532Z,23.70
2022-12-14T02:01:19.470Z,27.52
2022-12-14T02:03:51.674Z,22.50
2022-12-14T02:06:26.921Z,25.50
2022-12-14T02:08:56.674Z,29.90
2022-12-14T02:11:33.600Z,27.95
2022-12-14T02:14:01.487Z,24.75
2022-12-14T02:16:29.870Z,26.58
2022-12-14T02:19:00.639Z,27.20
2022-12-14T02:21:45.907Z,24.50
2022-12-14T02:24:43.070Z,26.65
2022-12-14T02:27:38.787Z,23.13
2022-12-14T02:30:11.825Z,22.00
2022-12-14T02:33:08.835Z,22.70
2022-12-14T02:35:43.648Z,24.92
2022-12-14T02:38:28.300Z,26.25
2022-12-14T02:41:07.515Z,28.98
2022-12-14T02:43:43.111Z,31.10
2022-12-14T02:46:22.181Z,24.75
2022-12-14T02:48:58.268Z,22.77
2022-12-14T02:51:35.878Z,28.25
2022-12-14T02:54:09.480Z,24.42
2022-12-14T02:56:44.095Z,26.60
2022-12-14T02:59:13.082Z,31.50
2022-12-14T03:01:43.933Z,27.27
2022-12-14T03:04:16.075Z,27.42
2022-12-14T03:06:54.597Z,27.13
2022-12-14T03:09:22.669Z,25.20
2022-12-14T03:11:55.236Z,28.35
2022-12-14T03:14:28.649Z,29.17
2022-12-14T03:17:05.339Z,25.27
2022-12-14T03:19:39.028Z,22.35
2022-12-14T03:22:10.877Z,28.85
2022-12-14T03:24:44.388Z,22.67
2022-12-14T03:27:16.685Z,29.52
2022-12-14T03:29:48.207Z,23.75
2022-12-14T03:32:21.230Z,30.58
2022-12-14T03:34:55.155Z,26.30
2022-12-14T03:37:28.986Z,25.85
2022-12-14T03:39:57.168Z,31.85
2022-12-14T03:42:28.197Z,24.50
2022-12-14T03:45:04.519Z,26.95
2022-12-14T03:47:52.764Z,22.08
2022-12-14T03:50:25.934Z,27.50
2022-12-14T03:53:00.111Z,27.95
2022-12-14T03:55:33.216Z,23.60
2022-12-14T03:58:18.969Z,21.73
2022-12-14T04:00:53.313Z,27.00
2022-12-14T04:03:31.159Z,23.80
2022-12-14T04:06:03.315Z,30.65
2022-12-14T04:08:40.195Z,27.35
2022-12-14T04:11:29.274Z,23.10
2022-12-14T04:14:19.561Z,26.90
2022-12-14T04:17:09.956Z,23.13
2022-12-14T04:19:48.914Z,24.50
2022-12-14T04:22:22.451Z,23.38
2022-12-14T04:25:13.243Z,23.30
2022-12-14T04:27:45.789Z,21.75
2022-12-14T04:30:14.707Z,26.75
2022-12-14T04:32:47.321Z,32.10
2022-12-14T04:35:22.261Z,28.25
2022-12-14T04:37:53.673Z,24.77
2022-12-14T04:40:25.556Z,28.98
2022-12-14T04:42:56.793Z,22.95
2022-12-14T04:45:29.965Z,22.65
2022-12-14T04:48:04.855Z,23.67
2022-12-14T04:50:42.111Z,30.75
2022-12-14T04:53:14.792Z,24.42
2022-12-14T04:55:50.341Z,23.15
2022-12-14T04:58:23.244Z,21.27
2022-12-14T05:01:11.556Z,29.63
2022-12-14T05:03:52.432Z,23.73
2022-12-14T05:06:27.816Z,23.15
2022-12-14T05:09:12.051Z,24.88
2022-12-14T05:11:55.689Z,27.27
2022-12-14T05:14:33.156Z,21.48
2022-12-14T05:17:09.300Z,22.65
2022-12-14T05:19:38.327Z,23.77
2022-12-14T05:22:11.318Z,25.77
2022-12-14T05:24:39.142Z,27.95
2022-12-14T05:27:06.903Z,23.38
2022-12-14T05:29:35.175Z,23.08
2022-12-14T05:32:03.919Z,25.38
2022-12-14T05:34:31.834Z,23.95
2022-12-14T05:36:59.848Z,20.95
2022-12-14T05:39:28.973Z,24.02
2022-12-14T05:41:57.004Z,24.27
2022-12-14T05:44:24.949Z,22.80
2022-12-14T05:46:54.019Z,23.95
2022-12-14T05:49:22.026Z,23.63
2022-12-14T05:51:50.403Z,24.85
2022-12-14T05:54:18.214Z,25.35
2022-12-14T05:56:47.790Z,23.58
2022-12-14T05:59:17.010Z,25.10
2022-12-14T06:01:49.165Z,18.77
2022-12-14T06:04:19.856Z,23.77
2022-12-14T06:06:47.905Z,22.80
2022-12-14T06:09:17.135Z,27.02
2022-12-14T06:11:46.930Z,25.27
2022-12-14T06:14:16.403Z,25.65
2022-12-14T06:16:45.719Z,28.88
2022-12-14T06:19:15.429Z,21.95
2022-12-14T06:21:44.917Z,25.90
2022-12-14T06:24:14.236Z,26.65
2022-12-14T06:26:42.529Z,22.75
2022-12-14T06:29:18.937Z,26.73
2022-12-14T06:31:49.452Z,21.88
2022-12-14T06:34:18.022Z,23.88
2022-12-14T06:36:46.967Z,29.98
2022-12-14T06:39:16.276Z,24.80
2022-12-14T06:41:51.327Z,27.33
2022-12-14T06:44:23.405Z,28.90
2022-12-14T06:46:51.390Z,19.85
2022-12-14T06:49:19.481Z,25.50
2022-12-14T06:51:47.427Z,21.50
2022-12-14T06:54:16.470Z,25.13
2022-12-14T06:56:47.377Z,20.10
2022-12-14T06:59:16.549Z,21.50
2022-12-14T07:01:46.020Z,22.67
2022-12-14T07:04:20.980Z,22.65
2022-12-14T07:06:51.486Z,26.23
2022-12-14T07:09:19.706Z,21.42
2022-12-14T07:11:50.576Z,24.48
2022-12-14T07:14:19.209Z,20.42
2022-12-14T07:16:49.344Z,21.25
2022-12-14T07:19:18.145Z,19.13
2022-12-14T07:21:49.129Z,20.38
2022-12-14T07:24:19.887Z,29.80
2022-12-14T07:26:47.836Z,25.10
2022-12-14T07:29:16.968Z,20.58
2022-12-14T07:31:44.810Z,19.02
2022-12-14T07:34:19.237Z,24.95
2022-12-14T07:36:49.967Z,24.38
2022-12-14T07:39:28.832Z,22.45
2022-12-14T07:41:59.749Z,21.15
2022-12-14T07:44:27.913Z,17.08
2022-12-14T07:46:56.088Z,25.23
2022-12-14T07:49:25.734Z,19.92
2022-12-14T07:51:54.012Z,24.13
2022-12-14T07:54:22.311Z,24.63
2022-12-14T07:56:51.004Z,23.95
2022-12-14T07:59:19.219Z,25.92
2022-12-14T08:01:47.337Z,24.55
2022-12-14T08:04:16.771Z,25.35
2022-12-14T08:06:50.219Z,32.85
2022-12-14T08:09:20.184Z,20.92
2022-12-14T08:11:48.219Z,20.33
2022-12-14T08:14:18.269Z,20.63
2022-12-14T08:16:47.350Z,20.17
2022-12-14T08:19:18.603Z,21.58
2022-12-14T08:21:48.086Z,23.63
2022-12-14T08:24:16.880Z,21.30
2022-12-14T08:26:49.125Z,20.85
2022-12-14T08:29:18.269Z,22.77
2022-12-14T08:31:48.508Z,24.05
2022-12-14T08:34:22.186Z,22.15
2022-12-14T08:36:51.540Z,19.10
2022-12-14T08:39:19.591Z,21.40
2022-12-14T08:41:47.509Z,25.15
2022-12-14T08:44:17.082Z,21.92
2022-12-14T08:46:45.225Z,19.80
2022-12-14T08:49:13.426Z,23.83
2022-12-14T08:51:41.992Z,24.75
2022-12-14T08:54:11.578Z,20.90
2022-12-14T08:56:39.618Z,21.52
2022-12-14T08:59:07.600Z,17.75
2022-12-14T09:01:35.723Z,23.23
2022-12-14T09:04:05.661Z,21.40
2022-12-14T09:06:36.946Z,23.80
2022-12-14T09:09:08.174Z,21.60
2022-12-14T09:11:42.931Z,25.90
2022-12-14T09:14:11.067Z,23.80
2022-12-14T09:16:40.076Z,19.08
2022-12-14T09:19:08.380Z,21.33
2022-12-14T09:21:36.319Z,22.90
2022-12-14T09:24:04.408Z,22.35
2022-12-14T09:26:33.860Z,31.15
2022-12-14T09:29:03.216Z,33.17
2022-12-14T09:31:31.262Z,25.58
2022-12-14T09:33:59.532Z,19.38
2022-12-14T09:36:29.599Z,24.50
2022-12-14T09:38:58.270Z,24.45
2022-12-14T09:41:38.246Z,29.63
2022-12-14T09:44:19.081Z,28.80
2022-12-14T09:46:55.362Z,22.52
2022-12-14T09:49:29.167Z,23.17
2022-12-14T09:52:01.874Z,21.42
2022-12-14T09:54:34.665Z,22.63
2022-12-14T09:57:08.993Z,17.98
2022-12-14T09:59:38.549Z,22.08
2022-12-14T10:02:32.369Z,25.80
2022-12-14T10:05:17.098Z,22.42
2022-12-14T10:07:56.065Z,21.65
2022-12-14T10:10:30.433Z,23.02
2022-12-14T10:13:04.269Z,23.35
2022-12-14T10:15:44.024Z,22.33
2022-12-14T10:18:57.078Z,22.95
2022-12-14T10:21:17.393Z,26.08
2022-12-14T10:23:53.980Z,19.42
2022-12-14T10:26:29.029Z,25.38
2022-12-14T10:29:01.735Z,20.42
2022-12-14T10:31:40.985Z,25.13
2022-12-14T10:34:19.060Z,21.13
2022-12-14T10:36:55.135Z,19.42
2022-12-14T10:39:31.109Z,22.73
2022-12-14T10:42:10.864Z,23.60
2022-12-14T10:44:51.477Z,20.77
2022-12-14T10:47:33.374Z,31.20
2022-12-14T10:50:14.269Z,21.65
2022-12-14T10:52:44.545Z,22.95
2022-12-14T10:55:17.561Z,20.25
2022-12-14T10:57:45.518Z,25.92
2022-12-14T11:00:22.947Z,28.50
2022-12-14T11:02:58.325Z,26.25
2022-12-14T11:05:37.522Z,20.60
2022-12-14T11:08:08.225Z,24.63
2022-12-14T11:10:39.429Z,22.10
2022-12-14T11:13:16.400Z,22.77
2022-12-14T11:15:47.028Z,24.88
2022-12-14T11:18:31.171Z,28.38
2022-12-14T11:21:01.619Z,30.23
2022-12-14T11:23:31.450Z,24.00
2022-12-14T11:26:01.562Z,21.50
2022-12-14T11:28:36.970Z,21.08
2022-12-14T11:31:10.369Z,21.77
2022-12-14T11:33:52.793Z,24.95
2022-12-14T11:36:26.924Z,27.60
2022-12-14T11:38:59.227Z,20.38
2022-12-14T11:41:31.241Z,27.33
2022-12-14T11:44:10.930Z,22.90
2022-12-14T11:46:45.140Z,23.08
2022-12-14T11:49:24.726Z,19.25
2022-12-14T11:51:58.146Z,20.58
2022-12-14T11:54:26.808Z,21.25
2022-12-14T11:57:01.161Z,24.77
2022-12-14T11:59:38.194Z,21.45
2022-12-14T12:02:21.644Z,24.65
2022-12-14T12:04:55.853Z,29.27
2022-12-14T12:07:29.801Z,27.85
2022-12-14T12:10:03.169Z,22.33
2022-12-14T12:12:32.063Z,22.90
2022-12-14T12:15:00.896Z,26.25
2022-12-14T12:17:44.082Z,21.75
2022-12-14T12:20:24.386Z,27.15
2022-12-14T12:22:59.497Z,25.52
2022-12-14T12:25:37.025Z,23.30
2022-12-14T12:28:15.859Z,22.92
2022-12-14T12:30:49.108Z,20.42
2022-12-14T12:33:30.201Z,20.98
2022-12-14T12:36:04.077Z,24.35
2022-12-14T12:39:00.245Z,22.40
2022-12-14T12:41:41.739Z,20.70
2022-12-14T12:44:28.543Z,21.15
2022-12-14T12:47:24.333Z,26.35
2022-12-14T12:50:16.441Z,28.98
2022-12-14T12:52:57.922Z,20.30
2022-12-14T12:55:33.258Z,20.38
2022-12-14T12:58:04.925Z,40.53
2022-12-14T13:00:34.903Z,31.05
2022-12-14T13:03:10.242Z,18.83
2022-12-14T13:05:46.752Z,18.55
2022-12-14T13:08:23.877Z,19.65
2022-12-14T13:11:25.575Z,29.73
2022-12-14T13:13:46.552Z,22.30
2022-12-14T13:16:26.493Z,20.20
2022-12-14T13:19:40.400Z,23.13
2022-12-14T13:21:52.115Z,26.10
2022-12-14T13:24:22.702Z,20.48
2022-12-14T13:27:23.922Z,25.92
2022-12-14T13:30:12.326Z,22.08
2022-12-14T13:32:52.049Z,21.60
2022-12-14T13:35:36.504Z,21.20
2022-12-14T13:38:20.717Z,21.80
2022-12-14T13:41:10.112Z,20.20
2022-12-14T13:44:00.280Z,25.50
2022-12-14T13:46:31.068Z,21.05
2022-12-14T13:49:03.453Z,29.30
2022-12-14T13:51:34.328Z,22.88
2022-12-14T13:54:05.896Z,18.38
2022-12-14T13:56:38.525Z,24.13
2022-12-14T13:59:21.647Z,26.10
2022-12-14T14:01:56.683Z,23.48
2022-12-14T14:04:26.915Z,20.85
2022-12-14T14:06:55.760Z,23.25
2022-12-14T14:10:00.444Z,25.20
2022-12-14T14:12:53.799Z,21.13
2022-12-14T14:16:18.825Z,22.25
2022-12-14T14:18:38.214Z,22.83
2022-12-14T14:21:31.467Z,21.63
2022-12-14T14:24:01.383Z,19.42
2022-12-14T14:26:30.833Z,20.13
2022-12-14T14:29:22.596Z,22.52
2022-12-14T14:31:54.065Z,25.60
2022-12-14T14:34:46.910Z,23.27
2022-12-14T14:37:29.835Z,24.40
2022-12-14T14:40:18.329Z,26.15
2022-12-14T14:42:54.162Z,26.63
2022-12-14T14:45:33.777Z,22.73
2022-12-14T14:48:04.561Z,29.75
2022-12-14T14:50:36.555Z,20.80
2022-12-14T14:53:33.137Z,25.75
2022-12-14T14:56:21.436Z,23.83
2022-12-14T14:58:50.558Z,26.50
2022-12-14T15:01:29.772Z,29.98
2022-12-14T15:04:03.398Z,26.88
2022-12-14T15:06:33.903Z,26.20
2022-12-14T15:09:06.594Z,32.97
2022-12-14T15:11:43.598Z,34.53
2022-12-14T15:14:35.691Z,29.38
2022-12-14T15:17:17.338Z,27.02
2022-12-14T15:19:51.447Z,26.60
2022-12-14T15:22:22.973Z,32.45
2022-12-14T15:24:54.326Z,26.30
2022-12-14T15:27:27.887Z,33.63
2022-12-14T15:30:04.488Z,31.35
2022-12-14T15:32:34.856Z,30.55
2022-12-14T15:35:05.856Z,23.92
2022-12-14T15:37:42.177Z,26.38
2022-12-14T15:40:15.123Z,28.45
2022-12-14T15:42:47.275Z,26.73
2022-12-14T15:45:18.305Z,29.67
2022-12-14T15:47:49.257Z,27.33
2022-12-14T15:50:29.644Z,31.20
2022-12-14T15:53:00.940Z,31.30
2022-12-14T15:55:41.026Z,36.65
2022-12-14T15:58:29.806Z,27.75
2022-12-14T16:01:01.756Z,33.17
2022-12-14T16:03:36.628Z,32.78
2022-12-14T16:06:05.771Z,37.72
2022-12-14T16:08:36.431Z,27.58
2022-12-14T16:11:08.367Z,29.13
2022-12-14T16:13:41.601Z,38.35
2022-12-14T16:16:12.297Z,36.80
2022-12-14T16:18:51.045Z,34.17
2022-12-14T16:21:30.751Z,32.00
2022-12-14T16:23:58.843Z,30.02
2022-12-14T16:26:29.895Z,36.13
2022-12-14T16:29:10.032Z,34.40
2022-12-14T16:31:39.106Z,32.55
2022-12-14T16:34:15.198Z,33.83
2022-12-14T16:36:48.197Z,33.38
2022-12-14T16:39:26.931Z,36.17
2022-12-14T16:41:58.448Z,32.78
2022-12-14T16:44:38.901Z,36.60
2022-12-14T16:47:29.191Z,34.42
2022-12-14T16:50:00.405Z,40.05
2022-12-14T16:52:30.625Z,37.60
2022-12-14T16:55:14.398Z,40.50
2022-12-14T16:57:53.293Z,32.22
2022-12-14T17:00:23.640Z,39.80
2022-12-14T17:02:57.860Z,38.63
2022-12-14T17:05:36.131Z,46.03
2022-12-14T17:08:04.679Z,39.65
2022-12-14T17:10:33.159Z,37.92
2022-12-14T17:13:03.767Z,49.85
2022-12-14T17:15:34.253Z,41.30
2022-12-14T17:18:04.443Z,38.85
2022-12-14T17:20:39.539Z,37.50
2022-12-14T17:23:09.581Z,31.80
2022-12-14T17:25:44.587Z,41.25
2022-12-14T17:28:22.400Z,38.83
2022-12-14T17:30:51.804Z,36.38
2022-12-14T17:33:19.857Z,39.30
2022-12-14T17:35:49.137Z,39.88
2022-12-14T17:38:18.671Z,43.40
2022-12-14T17:40:48.368Z,46.80
2022-12-14T17:43:21.802Z,40.90
2022-12-14T17:45:50.144Z,42.95
2022-12-14T17:48:18.998Z,40.33
2022-12-14T17:50:51.440Z,39.40
2022-12-14T17:53:23.474Z,41.53
2022-12-14T17:55:51.626Z,42.08
2022-12-14T17:58:23.213Z,41.90
2022-12-14T18:01:03.647Z,42.92
2022-12-14T18:03:36.473Z,43.75
2022-12-14T18:06:06.718Z,41.95
2022-12-14T18:08:34.869Z,40.72
2022-12-14T18:11:11.895Z,44.70
2022-12-14T18:13:42.425Z,43.88
2022-12-14T18:16:13.627Z,44.83
2022-12-14T18:18:42.583Z,44.08
2022-12-14T18:21:20.122Z,54.60
2022-12-14T18:23:49.767Z,46.45
2022-12-14T18:26:21.172Z,57.63
2022-12-14T18:28:57.980Z,46.97
2022-12-14T18:31:30.399Z,47.00
2022-12-14T18:33:58.818Z,42.95
2022-12-14T18:36:28.421Z,52.67
2022-12-14T18:38:57.239Z,51.22
2022-12-14T18:41:27.420Z,41.97
2022-12-14T18:43:55.894Z,49.50
2022-12-14T18:46:25.131Z,50.33
2022-12-14T18:48:53.271Z,51.42
2022-12-14T18:51:24.350Z,45.47
2022-12-14T18:53:54.527Z,53.58
2022-12-14T18:56:23.834Z,49.03
2022-12-14T18:58:52.033Z,49.00
2022-12-14T19:01:22.793Z,46.95
2022-12-14T19:03:51.676Z,51.22
2022-12-14T19:09:11.482Z,34.28
2022-12-14T19:11:41.805Z,52.67
2022-12-14T19:14:10.083Z,50.70
2022-12-14T19:16:39.993Z,51.60
2022-12-14T19:19:09.434Z,50.00
2022-12-14T19:21:37.435Z,43.38
2022-12-14T19:24:08.593Z,47.92
2022-12-14T19:26:38.629Z,48.28
2022-12-14T19:29:06.647Z,50.60
2022-12-14T19:31:34.755Z,51.72
2022-12-14T19:34:02.799Z,56.22
2022-12-14T19:36:30.860Z,53.28
2022-12-14T19:39:00.107Z,53.25
2022-12-14T19:41:28.168Z,54.83
2022-12-14T19:44:01.132Z,57.88
2022-12-14T19:46:29.233Z,49.80
2022-12-14T19:48:59.664Z,53.50
2022-12-14T19:51:27.613Z,58.88
2022-12-14T19:53:56.013Z,55.25
2022-12-14T19:56:24.218Z,47.42
2022-12-14T19:58:52.232Z,52.88
2022-12-14T20:01:21.800Z,59.78
2022-12-14T20:03:50.334Z,51.33
2022-12-14T20:06:18.698Z,56.72
2022-12-14T20:08:49.500Z,46.47
2022-12-14T20:11:18.052Z,46.65
2022-12-14T20:13:46.179Z,52.13
2022-12-14T20:16:17.351Z,53.88
2022-12-14T20:18:47.452Z,48.90
2022-12-14T20:21:21.935Z,53.80
2022-12-14T20:23:50.668Z,48.30
2022-12-14T20:26:24.303Z,56.78
2022-12-14T20:28:54.826Z,55.38
2022-12-14T20:31:23.431Z,59.60
2022-12-14T20:33:53.072Z,59.80
2022-12-14T20:36:22.270Z,51.40
2022-12-14T20:38:54.951Z,50.75
2022-12-14T20:41:22.936Z,47.80
2022-12-14T20:43:51.602Z,53.10
2022-12-14T20:46:31.873Z,54.45
2022-12-14T20:49:02.918Z,53.92
2022-12-14T20:51:32.698Z,51.50
2022-12-14T20:54:02.166Z,56.97
2022-12-14T20:56:32.844Z,62.05
2022-12-14T20:59:00.711Z,61.72
2022-12-14T21:01:28.886Z,55.97
2022-12-14T21:03:57.757Z,60.80
2022-12-14T21:06:27.683Z,60.80
2022-12-14T21:09:11.725Z,62.83
2022-12-14T21:11:59.893Z,63.55
2022-12-14T21:14:30.175Z,57.75
2022-12-14T21:17:00.579Z,66.80
2022-12-14T21:19:28.917Z,62.05
2022-12-14T21:21:58.332Z,57.70
2022-12-14T21:25:00.980Z,57.25
2022-12-14T21:27:19.537Z,62.08
2022-12-14T21:29:48.249Z,58.92
2022-12-14T21:32:17.069Z,50.13
2022-12-14T21:34:46.078Z,56.97
2022-12-14T21:37:15.825Z,54.90
2022-12-14T21:39:50.510Z,47.58
2022-12-14T21:42:20.661Z,57.63
2022-12-14T21:44:50.315Z,59.00
2022-12-14T21:47:20.025Z,52.88
2022-12-14T21:49:48.646Z,60.30
2022-12-14T21:52:20.811Z,59.70
2022-12-14T21:54:48.898Z,55.78
2022-12-14T21:57:35.346Z,58.10
2022-12-14T22:00:14.312Z,60.03
2022-12-14T22:02:43.005Z,57.10
2022-12-14T22:05:11.504Z,59.08
2022-12-14T22:07:41.122Z,58.08
2022-12-14T22:10:09.252Z,51.33
2022-12-14T22:12:37.482Z,62.60
2022-12-14T22:15:05.913Z,59.58
2022-12-14T22:17:34.768Z,59.40
2022-12-14T22:20:05.564Z,60.58
2022-12-14T22:22:33.314Z,54.08
2022-12-14T22:25:02.877Z,59.40
2022-12-14T22:27:31.491Z,60.35
2022-12-14T22:29:59.450Z,69.22
2022-12-14T22:32:27.494Z,54.45
2022-12-14T22:34:55.858Z,59.70
2022-12-14T22:37:23.795Z,55.97
2022-12-14T22:39:51.593Z,59.97
2022-12-14T22:42:21.064Z,58.50
2022-12-14T22:44:50.105Z,63.00
2022-12-14T22:47:18.178Z,55.45
2022-12-14T22:49:46.160Z,59.03
2022-12-14T22:52:14.296Z,64.68
2022-12-14T22:54:43.624Z,63.95
2022-12-14T22:57:21.788Z,64.00
2022-12-14T22:59:54.244Z,62.53
2022-12-14T23:02:22.508Z,60.88
2022-12-14T23:04:50.777Z,63.13
2022-12-14T23:07:18.662Z,64.45
2022-12-14T23:10:04.447Z,61.90
2022-12-14T23:12:51.144Z,76.72
2022-12-14T23:15:36.645Z,63.58
2022-12-14T23:18:23.704Z,59.50
2022-12-14T23:21:09.538Z,63.08
2022-12-14T23:23:57.033Z,63.08
2022-12-14T23:26:42.453Z,55.90
2022-12-14T23:29:29.465Z,67.38
2022-12-14T23:32:14.710Z,57.40
2022-12-14T23:35:00.520Z,54.38
2022-12-14T23:37:46.139Z,63.35
2022-12-14T23:40:31.601Z,62.05
2022-12-14T23:43:16.837Z,59.50
2022-12-14T23:46:03.758Z,56.38
2022-12-14T23:48:48.832Z,59.05
2022-12-14T23:51:34.166Z,66.32
2022-12-14T23:54:19.644Z,59.53
2022-12-14T23:57:04.931Z,63.13
2022-12-14T23:59:50.366Z,62.45
